createdAt,value
2018-04-30T00:00:06.509Z,16.10
2018-04-30T00:02:35.341Z,16.00
2018-04-30T00:05:04.534Z,16.20
2018-04-30T00:07:34.149Z,16.50
2018-04-30T00:10:03.020Z,16.40
2018-04-30T00:12:31.861Z,16.40
2018-04-30T00:15:00.727Z,16.40
2018-04-30T00:17:29.575Z,16.40
2018-04-30T00:19:58.435Z,16.60
2018-04-30T00:22:27.257Z,16.80
2018-04-30T00:24:56.124Z,17.00
2018-04-30T00:27:25.744Z,17.20
2018-04-30T00:29:55.360Z,17.30
2018-04-30T00:32:24.208Z,17.30
2018-04-30T00:34:53.343Z,17.30
2018-04-30T00:37:22.412Z,17.40
2018-04-30T00:39:51.253Z,17.20
2018-04-30T00:42:20.112Z,17.00
2018-04-30T00:44:49.741Z,17.00
2018-04-30T00:47:18.626Z,17.00
2018-04-30T00:49:47.461Z,16.80
2018-04-30T00:52:16.322Z,16.70
2018-04-30T00:54:57.117Z,16.60
2018-04-30T00:57:25.974Z,16.60
2018-04-30T00:59:54.861Z,16.60
2018-04-30T01:02:23.726Z,16.60
2018-04-30T01:04:52.601Z,16.50
2018-04-30T01:07:22.236Z,16.60
2018-04-30T01:09:51.082Z,16.60
2018-04-30T01:12:19.934Z,16.80
2018-04-30T01:14:48.776Z,16.90
2018-04-30T01:17:17.644Z,16.90
2018-04-30T01:19:47.185Z,16.80
2018-04-30T01:22:16.032Z,16.70
2018-04-30T01:24:44.894Z,16.80
2018-04-30T01:27:13.787Z,16.70
2018-04-30T01:29:43.389Z,16.40
2018-04-30T01:32:13.013Z,16.30
2018-04-30T01:34:41.905Z,16.30
2018-04-30T01:37:10.798Z,16.40
2018-04-30T01:39:39.689Z,16.60
2018-04-30T01:42:08.581Z,16.60
2018-04-30T01:44:37.446Z,16.80
2018-04-30T01:47:06.733Z,16.90
2018-04-30T01:49:36.376Z,16.90
2018-04-30T01:52:05.231Z,16.80
2018-04-30T01:54:34.844Z,16.90
2018-04-30T01:57:04.481Z,16.90
2018-04-30T01:59:33.336Z,16.90
2018-04-30T02:02:02.965Z,16.90
2018-04-30T02:04:32.588Z,16.90
2018-04-30T02:07:01.893Z,16.90
2018-04-30T02:09:30.749Z,16.90
2018-04-30T02:11:59.712Z,16.80
2018-04-30T02:14:29.441Z,16.80
2018-04-30T02:16:59.060Z,16.80
2018-04-30T02:19:27.902Z,16.70
2018-04-30T02:21:56.758Z,16.50
2018-04-30T02:24:26.380Z,16.50
2018-04-30T02:26:55.256Z,16.40
2018-04-30T02:29:24.098Z,16.60
2018-04-30T02:31:53.036Z,16.60
2018-04-30T02:34:21.892Z,16.40
2018-04-30T02:36:51.538Z,16.20
2018-04-30T02:39:20.377Z,16.10
2018-04-30T02:41:50.021Z,16.00
2018-04-30T02:44:18.897Z,15.90
2018-04-30T02:46:48.505Z,16.10
2018-04-30T02:49:17.344Z,16.00
2018-04-30T02:51:46.858Z,16.20
2018-04-30T02:54:15.690Z,16.20
2018-04-30T02:56:45.302Z,16.20
2018-04-30T02:59:14.918Z,16.20
2018-04-30T03:01:43.792Z,16.20
2018-04-30T03:04:13.402Z,16.00
2018-04-30T03:06:42.492Z,15.90
2018-04-30T03:09:12.108Z,15.90
2018-04-30T03:11:40.955Z,15.80
2018-04-30T03:14:09.900Z,15.80
2018-04-30T03:16:38.765Z,15.90
2018-04-30T03:19:07.620Z,15.90
2018-04-30T03:21:36.462Z,15.90
2018-04-30T03:24:05.328Z,16.10
2018-04-30T03:26:34.167Z,16.20
2018-04-30T03:29:03.782Z,16.10
2018-04-30T03:31:32.625Z,16.00
2018-04-30T03:34:01.484Z,16.10
2018-04-30T03:36:30.368Z,16.20
2018-04-30T03:38:59.228Z,16.30
2018-04-30T03:41:28.098Z,16.30
2018-04-30T03:43:57.701Z,16.20
2018-04-30T03:46:27.316Z,16.20
2018-04-30T03:48:56.303Z,16.10
2018-04-30T03:51:25.922Z,16.10
2018-04-30T03:53:55.532Z,16.20
2018-04-30T03:56:25.149Z,16.30
2018-04-30T03:58:54.053Z,16.20
2018-04-30T04:01:34.888Z,16.30
2018-04-30T04:04:16.460Z,16.40
2018-04-30T04:06:52.238Z,16.40
2018-04-30T04:09:21.851Z,16.60
2018-04-30T04:11:51.019Z,16.50
2018-04-30T04:14:19.862Z,16.60
2018-04-30T04:16:48.860Z,16.60
2018-04-30T04:19:18.483Z,16.60
2018-04-30T04:21:48.371Z,16.60
2018-04-30T04:24:17.208Z,16.60
2018-04-30T04:26:46.991Z,16.70
2018-04-30T04:29:16.281Z,16.70
2018-04-30T04:31:45.893Z,16.70
2018-04-30T04:34:14.736Z,16.60
2018-04-30T04:36:43.602Z,16.70
2018-04-30T04:39:12.449Z,16.70
2018-04-30T04:41:41.334Z,16.70
2018-04-30T04:44:10.933Z,16.70
2018-04-30T04:46:40.545Z,16.70
2018-04-30T04:49:10.162Z,16.60
2018-04-30T04:51:39.388Z,16.60
2018-04-30T04:54:08.240Z,16.70
2018-04-30T04:56:37.854Z,16.60
2018-04-30T04:59:06.932Z,16.50
2018-04-30T05:01:36.549Z,16.30
2018-04-30T05:04:06.477Z,16.30
2018-04-30T05:06:35.327Z,16.20
2018-04-30T05:09:04.289Z,16.40
2018-04-30T05:11:33.124Z,16.50
2018-04-30T05:14:02.752Z,16.60
2018-04-30T05:16:31.628Z,16.60
2018-04-30T05:19:01.277Z,16.50
2018-04-30T05:21:30.130Z,16.50
2018-04-30T05:23:58.972Z,16.60
2018-04-30T05:26:27.810Z,16.50
2018-04-30T05:28:56.644Z,16.30
2018-04-30T05:31:25.486Z,16.10
2018-04-30T05:33:54.377Z,16.00
2018-04-30T05:36:23.936Z,16.00
2018-04-30T05:38:54.285Z,15.80
2018-04-30T05:41:23.865Z,15.60
2018-04-30T05:43:52.701Z,15.60
2018-04-30T05:46:21.543Z,15.50
2018-04-30T05:48:50.378Z,15.50
2018-04-30T05:51:19.229Z,15.60
2018-04-30T05:53:48.057Z,15.60
2018-04-30T05:56:16.878Z,15.50
2018-04-30T05:58:45.738Z,15.60
2018-04-30T06:01:14.577Z,15.40
2018-04-30T06:03:43.436Z,15.30
2018-04-30T06:06:12.268Z,15.00
2018-04-30T06:08:41.964Z,15.00
2018-04-30T06:11:11.601Z,14.90
2018-04-30T06:13:41.241Z,14.90
2018-04-30T06:16:10.070Z,14.90
2018-04-30T06:18:39.801Z,15.00
2018-04-30T06:21:09.444Z,14.90
2018-04-30T06:26:14.300Z,14.90
2018-04-30T06:28:43.153Z,14.90
2018-04-30T06:31:12.738Z,15.00
2018-04-30T06:33:41.591Z,15.00
2018-04-30T06:36:10.423Z,14.90
2018-04-30T06:38:39.252Z,14.80
2018-04-30T06:41:08.100Z,14.90
2018-04-30T06:43:36.932Z,14.90
2018-04-30T06:46:05.774Z,15.00
2018-04-30T06:48:34.671Z,15.00
2018-04-30T06:51:03.505Z,15.00
2018-04-30T06:53:32.513Z,15.00
2018-04-30T06:56:01.333Z,14.90
2018-04-30T06:58:33.482Z,15.00
2018-04-30T07:01:02.353Z,15.10
2018-04-30T07:03:31.758Z,15.20
2018-04-30T07:06:00.589Z,15.30
2018-04-30T07:08:29.447Z,15.10
2018-04-30T07:10:58.302Z,15.20
2018-04-30T07:13:27.155Z,15.10
2018-04-30T07:15:56.800Z,15.00
2018-04-30T07:18:25.626Z,15.00
2018-04-30T07:20:55.222Z,14.90
2018-04-30T07:23:24.831Z,15.20
2018-04-30T07:25:54.459Z,15.10
2018-04-30T07:28:23.354Z,15.10
2018-04-30T07:30:52.208Z,15.10
2018-04-30T07:33:21.690Z,15.00
2018-04-30T07:35:50.556Z,15.10
2018-04-30T07:38:19.376Z,14.80
2018-04-30T07:40:49.014Z,14.80
2018-04-30T07:43:17.849Z,14.80
2018-04-30T07:45:47.021Z,14.70
2018-04-30T07:48:15.853Z,14.80
2018-04-30T07:50:44.697Z,14.90
2018-04-30T07:53:14.171Z,15.10
2018-04-30T07:55:43.791Z,15.10
2018-04-30T07:58:13.385Z,15.20
2018-04-30T08:00:42.993Z,15.00
2018-04-30T08:03:12.598Z,14.80
2018-04-30T08:05:42.265Z,14.70
2018-04-30T08:08:11.101Z,14.70
2018-04-30T08:10:40.603Z,14.80
2018-04-30T08:13:10.246Z,14.70
2018-04-30T08:15:39.109Z,14.60
2018-04-30T08:18:08.653Z,14.50
2018-04-30T08:20:37.502Z,14.50
2018-04-30T08:23:06.524Z,14.50
2018-04-30T08:25:35.355Z,14.60
2018-04-30T08:28:04.199Z,14.60
2018-04-30T08:30:33.014Z,14.70
2018-04-30T08:33:01.876Z,14.70
2018-04-30T08:35:30.716Z,14.70
2018-04-30T08:37:59.565Z,14.70
2018-04-30T08:40:28.405Z,14.80
2018-04-30T08:42:57.243Z,14.90
2018-04-30T08:45:26.075Z,15.00
2018-04-30T08:47:54.934Z,14.70
2018-04-30T08:50:23.762Z,14.60
2018-04-30T08:52:52.645Z,14.60
2018-04-30T08:55:21.485Z,14.70
2018-04-30T08:57:50.338Z,14.60
2018-04-30T09:00:20.081Z,14.60
2018-04-30T09:02:48.811Z,14.50
2018-04-30T09:05:17.675Z,14.50
2018-04-30T09:07:46.530Z,14.40
2018-04-30T09:10:15.402Z,14.40
2018-04-30T09:12:44.284Z,14.40
2018-04-30T09:15:13.105Z,14.50
2018-04-30T09:17:42.185Z,14.60
2018-04-30T09:20:11.794Z,14.80
2018-04-30T09:22:40.630Z,14.80
2018-04-30T09:25:10.162Z,14.70
2018-04-30T09:27:39.012Z,14.90
2018-04-30T09:30:08.634Z,15.20
2018-04-30T09:32:37.924Z,15.20
2018-04-30T09:35:07.770Z,15.40
2018-04-30T09:37:36.620Z,15.30
2018-04-30T09:40:05.698Z,15.20
2018-04-30T09:42:35.328Z,15.00
2018-04-30T09:45:04.941Z,15.10
2018-04-30T09:47:34.550Z,15.00
2018-04-30T09:50:04.158Z,14.90
2018-04-30T09:52:33.768Z,14.90
2018-04-30T09:55:02.879Z,14.90
2018-04-30T09:57:31.705Z,15.10
2018-04-30T10:00:01.182Z,15.30
2018-04-30T10:02:30.058Z,15.40
2018-04-30T10:04:59.025Z,15.30
2018-04-30T10:07:28.532Z,15.00
2018-04-30T10:09:58.136Z,14.90
2018-04-30T10:12:27.010Z,14.90
2018-04-30T10:14:55.819Z,15.00
2018-04-30T10:17:25.440Z,15.20
2018-04-30T10:19:55.046Z,15.30
2018-04-30T10:22:24.657Z,15.40
2018-04-30T10:24:54.516Z,15.40
2018-04-30T10:27:24.125Z,15.60
2018-04-30T10:29:53.609Z,15.60
2018-04-30T10:32:23.929Z,16.10
2018-04-30T10:34:52.736Z,16.00
2018-04-30T10:37:21.867Z,16.10
2018-04-30T10:39:50.705Z,16.20
2018-04-30T10:42:19.539Z,16.60
2018-04-30T10:44:48.405Z,17.20
2018-04-30T10:47:18.084Z,20.30
2018-04-30T10:49:47.078Z,20.20
2018-04-30T10:52:15.931Z,20.00
2018-04-30T10:54:44.833Z,19.70
2018-04-30T10:57:13.997Z,19.70
2018-04-30T10:59:43.659Z,21.90
2018-04-30T11:02:14.036Z,22.80
2018-04-30T11:04:43.680Z,23.60
2018-04-30T11:07:12.501Z,23.50
2018-04-30T11:09:41.371Z,22.90
2018-04-30T11:12:10.243Z,23.60
2018-04-30T11:14:40.616Z,22.00
2018-04-30T11:17:10.094Z,21.90
2018-04-30T11:19:38.967Z,22.30
2018-04-30T11:22:07.796Z,23.20
2018-04-30T11:24:38.051Z,24.10
2018-04-30T11:27:07.668Z,23.90
2018-04-30T11:29:36.565Z,23.90
2018-04-30T11:32:08.027Z,22.80
2018-04-30T11:34:36.873Z,22.50
2018-04-30T11:37:05.709Z,22.00
2018-04-30T11:39:34.537Z,21.50
2018-04-30T11:42:04.812Z,19.40
2018-04-30T11:44:34.423Z,19.20
2018-04-30T11:47:03.361Z,19.10
2018-04-30T11:49:32.900Z,18.70
2018-04-30T11:52:02.073Z,18.60
2018-04-30T11:54:31.766Z,17.90
2018-04-30T11:57:00.615Z,17.80
2018-04-30T11:59:29.470Z,17.70
2018-04-30T12:01:58.299Z,17.70
2018-04-30T12:04:27.716Z,17.30
2018-04-30T12:06:57.322Z,16.90
2018-04-30T12:09:26.593Z,16.90
2018-04-30T12:11:55.441Z,17.40
2018-04-30T12:14:24.921Z,17.60
2018-04-30T12:16:54.413Z,17.90
2018-04-30T12:19:23.245Z,17.70
2018-04-30T12:21:52.115Z,17.60
2018-04-30T12:24:21.718Z,17.40
2018-04-30T12:26:51.007Z,17.30
2018-04-30T12:29:20.491Z,17.20
2018-04-30T12:31:49.327Z,17.00
2018-04-30T12:34:18.180Z,17.00
2018-04-30T12:36:47.013Z,16.80
2018-04-30T12:39:15.847Z,17.10
2018-04-30T12:41:45.466Z,17.90
2018-04-30T12:44:15.062Z,18.20
2018-04-30T12:46:43.883Z,18.10
2018-04-30T12:49:12.744Z,18.40
2018-04-30T12:51:42.389Z,18.10
2018-04-30T12:54:11.226Z,18.10
2018-04-30T12:56:41.000Z,18.00
2018-04-30T12:59:09.858Z,18.10
2018-04-30T13:01:39.449Z,18.40
2018-04-30T13:04:09.060Z,18.50
2018-04-30T13:06:38.651Z,18.40
2018-04-30T13:09:10.345Z,18.30
2018-04-30T13:11:39.092Z,18.30
2018-04-30T13:14:08.730Z,18.20
2018-04-30T13:16:37.592Z,18.10
2018-04-30T13:19:06.428Z,17.80
2018-04-30T13:21:35.905Z,17.50
2018-04-30T13:24:05.536Z,17.20
2018-04-30T13:26:34.382Z,17.20
2018-04-30T13:29:03.245Z,17.50
2018-04-30T13:31:32.733Z,17.50
2018-04-30T13:34:01.584Z,17.40
2018-04-30T13:36:31.202Z,17.50
2018-04-30T13:39:00.825Z,17.40
2018-04-30T13:41:29.672Z,17.60
2018-04-30T13:43:59.928Z,17.70
2018-04-30T13:46:29.531Z,17.70
2018-04-30T13:48:59.139Z,17.30
2018-04-30T13:51:28.770Z,17.10
2018-04-30T13:53:58.268Z,17.10
2018-04-30T13:56:28.493Z,17.10
2018-04-30T13:58:57.325Z,17.10
2018-04-30T14:01:26.151Z,17.10
2018-04-30T14:03:55.057Z,16.80
2018-04-30T14:06:23.935Z,16.80
2018-04-30T14:08:52.785Z,16.80
2018-04-30T14:11:21.941Z,16.80
2018-04-30T14:13:50.779Z,16.80
2018-04-30T14:16:19.637Z,17.00
2018-04-30T14:18:48.462Z,17.20
2018-04-30T14:21:18.097Z,17.20
2018-04-30T14:23:49.794Z,17.10
2018-04-30T14:26:18.691Z,17.30
2018-04-30T14:28:47.511Z,17.50
2018-04-30T14:31:16.396Z,17.30
2018-04-30T14:33:45.237Z,17.10
2018-04-30T14:36:14.088Z,16.70
2018-04-30T14:38:43.068Z,16.60
2018-04-30T14:41:12.670Z,15.70
2018-04-30T14:43:41.531Z,15.60
2018-04-30T14:46:10.361Z,15.40
2018-04-30T14:48:39.212Z,15.60
2018-04-30T14:51:08.902Z,15.70
2018-04-30T14:53:37.729Z,15.60
2018-04-30T14:56:08.197Z,15.40
2018-04-30T14:58:37.051Z,15.60
2018-04-30T15:01:05.923Z,15.70
2018-04-30T15:03:35.541Z,16.10
2018-04-30T15:06:05.158Z,16.40
2018-04-30T15:08:34.786Z,16.30
2018-04-30T15:11:03.660Z,16.30
2018-04-30T15:13:32.585Z,16.30
2018-04-30T15:16:01.349Z,16.30
2018-04-30T15:18:30.814Z,16.40
2018-04-30T15:21:00.458Z,16.20
2018-04-30T15:23:30.241Z,16.10
2018-04-30T15:25:59.411Z,16.10
2018-04-30T15:28:28.987Z,16.10
2018-04-30T15:30:58.599Z,16.30
2018-04-30T15:33:28.230Z,16.20
2018-04-30T15:35:57.877Z,15.90
2018-04-30T15:38:26.672Z,15.90
2018-04-30T15:40:55.556Z,16.00
2018-04-30T15:43:24.437Z,16.10
2018-04-30T15:45:53.287Z,16.20
2018-04-30T15:48:22.149Z,15.90
2018-04-30T15:50:51.751Z,15.90
2018-04-30T15:53:21.377Z,15.80
2018-04-30T15:55:50.251Z,15.80
2018-04-30T15:58:20.602Z,15.50
2018-04-30T16:00:50.191Z,15.60
2018-04-30T16:03:19.701Z,15.60
2018-04-30T16:05:49.901Z,15.60
2018-04-30T16:08:18.762Z,15.50
2018-04-30T16:10:48.256Z,15.30
2018-04-30T16:13:17.098Z,15.10
2018-04-30T16:15:46.778Z,15.00
2018-04-30T16:18:15.580Z,15.00
2018-04-30T16:20:44.438Z,15.10
2018-04-30T16:23:13.267Z,15.10
2018-04-30T16:25:42.885Z,14.90
2018-04-30T16:28:11.725Z,14.90
2018-04-30T16:30:41.373Z,14.60
2018-04-30T16:33:10.468Z,14.60
2018-04-30T16:35:39.662Z,14.50
2018-04-30T16:38:09.183Z,14.50
2018-04-30T16:40:38.013Z,14.40
2018-04-30T16:43:07.633Z,14.30
2018-04-30T16:45:36.464Z,14.20
2018-04-30T16:48:05.298Z,14.20
2018-04-30T16:50:34.274Z,14.10
2018-04-30T16:53:03.737Z,14.10
2018-04-30T16:55:33.090Z,14.10
2018-04-30T16:58:01.981Z,14.10
2018-04-30T17:00:30.812Z,14.30
2018-04-30T17:02:59.658Z,14.30
2018-04-30T17:05:28.496Z,14.40
2018-04-30T17:07:57.305Z,14.50
2018-04-30T17:10:26.176Z,14.40
2018-04-30T17:12:55.014Z,14.20
2018-04-30T17:15:23.927Z,14.20
2018-04-30T17:17:53.246Z,14.30
2018-04-30T17:20:22.091Z,14.40
2018-04-30T17:22:52.445Z,14.50
2018-04-30T17:25:22.088Z,14.60
2018-04-30T17:27:51.866Z,14.50
2018-04-30T17:30:20.766Z,14.50
2018-04-30T17:32:50.333Z,14.70
2018-04-30T17:35:19.174Z,14.70
2018-04-30T17:37:48.721Z,14.60
2018-04-30T17:40:17.537Z,14.70
2018-04-30T17:42:46.402Z,14.50
2018-04-30T17:45:15.247Z,14.40
2018-04-30T17:47:44.672Z,14.40
2018-04-30T17:50:14.574Z,14.40
2018-04-30T17:52:44.076Z,14.30
2018-04-30T17:55:12.921Z,14.10
2018-04-30T17:57:41.784Z,14.10
2018-04-30T18:00:10.619Z,14.10
2018-04-30T18:02:39.477Z,14.10
2018-04-30T18:05:08.349Z,14.00
2018-04-30T18:07:37.165Z,13.90
2018-04-30T18:10:06.333Z,14.00
2018-04-30T18:12:35.853Z,14.10
2018-04-30T18:15:05.426Z,14.00
2018-04-30T18:17:35.035Z,14.00
2018-04-30T18:20:04.654Z,14.10
2018-04-30T18:22:34.129Z,14.10
2018-04-30T18:25:04.299Z,13.80
2018-04-30T18:27:33.345Z,13.80
2018-04-30T18:30:02.223Z,13.80
2018-04-30T18:32:31.086Z,14.10
2018-04-30T18:34:59.924Z,14.20
2018-04-30T18:37:29.206Z,14.40
2018-04-30T18:39:58.726Z,14.20
2018-04-30T18:42:29.201Z,14.10
2018-04-30T18:44:58.097Z,14.10
2018-04-30T18:47:26.941Z,14.00
2018-04-30T18:49:56.461Z,13.90
2018-04-30T18:52:26.439Z,13.80
2018-04-30T18:54:55.239Z,13.70
2018-04-30T18:57:24.876Z,13.40
2018-04-30T18:59:53.735Z,13.30
2018-04-30T19:02:23.378Z,13.20
2018-04-30T19:04:52.237Z,13.00
2018-04-30T19:07:21.108Z,13.10
2018-04-30T19:09:49.925Z,13.20
2018-04-30T19:12:20.112Z,13.20
2018-04-30T19:14:49.766Z,13.20
2018-04-30T19:17:19.398Z,13.20
2018-04-30T19:19:48.243Z,13.20
2018-04-30T19:22:17.119Z,13.20
2018-04-30T19:24:45.949Z,12.90
2018-04-30T19:27:15.492Z,12.80
2018-04-30T19:29:45.099Z,12.60
2018-04-30T19:32:15.341Z,12.50
2018-04-30T19:34:44.437Z,12.50
2018-04-30T19:37:13.337Z,12.40
2018-04-30T19:39:42.795Z,12.60
2018-04-30T19:42:11.965Z,12.70
2018-04-30T19:44:40.805Z,12.80
2018-04-30T19:47:09.685Z,12.80
2018-04-30T19:49:39.277Z,12.70
2018-04-30T19:52:08.885Z,12.80
2018-04-30T19:54:38.532Z,12.80
2018-04-30T19:57:07.361Z,12.70
2018-04-30T19:59:36.235Z,12.50
2018-04-30T20:02:05.066Z,12.50
2018-04-30T20:04:34.713Z,12.70
2018-04-30T20:07:03.911Z,12.60
2018-04-30T20:09:32.745Z,12.80
2018-04-30T20:12:02.248Z,12.80
2018-04-30T20:14:31.878Z,12.70
2018-04-30T20:17:00.712Z,12.60
2018-04-30T20:19:30.189Z,12.40
2018-04-30T20:21:59.038Z,12.30
2018-04-30T20:24:27.919Z,12.30
2018-04-30T20:26:56.748Z,12.40
2018-04-30T20:29:25.673Z,12.50
2018-04-30T20:31:55.299Z,12.30
2018-04-30T20:34:24.910Z,12.20
2018-04-30T20:36:53.894Z,12.10
2018-04-30T20:39:23.371Z,12.20
2018-04-30T20:41:52.223Z,12.20
2018-04-30T20:44:21.124Z,12.30
2018-04-30T20:46:50.787Z,12.30
2018-04-30T20:49:20.276Z,12.30
2018-04-30T20:51:49.899Z,11.90
2018-04-30T20:54:19.479Z,12.10
2018-04-30T20:56:49.790Z,11.90
2018-04-30T20:59:19.246Z,11.90
2018-04-30T21:01:48.086Z,11.90
2018-04-30T21:04:16.952Z,11.70
2018-04-30T21:06:46.028Z,11.50
2018-04-30T21:09:14.878Z,11.40
2018-04-30T21:11:44.706Z,11.10
2018-04-30T21:14:14.335Z,11.10
2018-04-30T21:16:43.210Z,11.10
2018-04-30T21:19:12.056Z,11.00
2018-04-30T21:21:40.915Z,11.00
2018-04-30T21:24:10.434Z,11.10
2018-04-30T21:26:39.252Z,11.00
2018-04-30T21:29:09.206Z,10.70
2018-04-30T21:31:38.821Z,10.80
2018-04-30T21:34:08.456Z,10.70
2018-04-30T21:36:37.284Z,10.60
2018-04-30T21:39:06.144Z,10.80
2018-04-30T21:41:34.962Z,10.80
2018-04-30T21:44:03.800Z,10.80
2018-04-30T21:46:33.249Z,10.90
2018-04-30T21:49:02.104Z,10.90
2018-04-30T21:51:31.678Z,10.70
2018-04-30T21:54:01.307Z,10.50
2018-04-30T21:56:30.877Z,10.70
2018-04-30T21:59:00.388Z,10.60
2018-04-30T22:01:30.038Z,10.90
2018-04-30T22:03:58.877Z,10.80
2018-04-30T22:06:28.615Z,10.60
2018-04-30T22:08:58.208Z,10.60
2018-04-30T22:11:27.836Z,10.60
2018-04-30T22:13:56.670Z,10.50
2018-04-30T22:16:25.518Z,10.60
2018-04-30T22:18:54.369Z,10.70
2018-04-30T22:21:24.006Z,10.90
2018-04-30T22:23:52.842Z,10.90
2018-04-30T22:26:21.680Z,11.00
2018-04-30T22:28:51.290Z,10.70
2018-04-30T22:31:20.129Z,10.70
2018-04-30T22:33:50.486Z,10.40
2018-04-30T22:36:20.102Z,10.50
2018-04-30T22:38:49.236Z,10.40
2018-04-30T22:41:18.093Z,10.60
2018-04-30T22:43:46.957Z,10.50
2018-04-30T22:46:16.576Z,10.40
2018-04-30T22:48:46.205Z,10.30
2018-04-30T22:51:15.034Z,10.20
2018-04-30T22:53:44.514Z,10.50
2018-04-30T22:56:13.381Z,10.50
2018-04-30T22:58:42.225Z,10.50
2018-04-30T23:01:12.568Z,10.20
2018-04-30T23:03:42.191Z,10.00
2018-04-30T23:06:11.026Z,9.90
2018-04-30T23:08:39.874Z,10.00
2018-04-30T23:11:08.724Z,10.10
2018-04-30T23:13:37.569Z,10.10
2018-04-30T23:16:06.766Z,10.10
2018-04-30T23:18:35.602Z,9.90
2018-04-30T23:21:04.456Z,9.80
2018-04-30T23:23:33.290Z,9.90
2018-04-30T23:26:02.130Z,10.20
2018-04-30T23:28:31.212Z,10.00
2018-04-30T23:31:00.071Z,9.60
2018-04-30T23:33:29.786Z,9.40
2018-04-30T23:35:59.718Z,9.50
2018-04-30T23:38:29.359Z,9.50
2018-04-30T23:40:58.196Z,9.40
2018-04-30T23:43:27.832Z,9.40
2018-04-30T23:45:56.667Z,9.40
2018-04-30T23:48:25.488Z,9.60
2018-04-30T23:50:55.102Z,10.00
2018-04-30T23:53:24.712Z,10.10
2018-04-30T23:55:54.341Z,9.70
2018-04-30T23:58:23.934Z,8.80
